Time;durP1;ratioP1;P1;durP2;ratioP2;P2;SDS_P1;SDS_P2;PMS_P1;PMS_P2;Temp;Humidity;BMP_temperature;BMP_pressure;BME280_temperature;BME280_humidity;BME280_pressure;Samples;Min_cycle;Max_cycle;Signal;HPM_P1;HPM_P2
2024/02/18 00:00:55;;;;;;;236.93;67.00;;;;;;;;;;5002128;28;20192;-46
2024/02/18 00:03:21;;;;;;;234.23;63.80;;;;;;;;;;4996531;28;20447;-45
2024/02/18 00:05:47;;;;;;;238.63;68.95;;;;;;;;;;4997715;28;20411;-45
2024/02/18 00:08:13;;;;;;;235.93;66.60;;;;;;;;;;4997264;28;20182;-45
2024/02/18 00:10:43;;;;;;;233.68;63.88;;;;;;;;;;4999127;28;20531;-45
2024/02/18 00:13:08;;;;;;;235.15;65.95;;;;;;;;;;4999479;28;20273;-45
2024/02/18 00:15:34;;;;;;;234.73;66.07;;;;;;;;;;4997753;28;20613;-46
2024/02/18 00:18:01;;;;;;;236.60;66.05;;;;;;;;;;4994691;28;20771;-45
2024/02/18 00:20:27;;;;;;;236.65;65.90;;;;;;;;;;4997147;28;20209;-45
2024/02/18 00:22:53;;;;;;;235.27;67.00;;;;;;;;;;4996820;28;20235;-44
2024/02/18 00:25:19;;;;;;;235.67;67.40;;;;;;;;;;4999261;28;20422;-47
2024/02/18 00:27:45;;;;;;;235.43;67.63;;;;;;;;;;4998666;28;20443;-45
2024/02/18 00:30:11;;;;;;;237.50;67.00;;;;;;;;;;5000404;28;21044;-44
2024/02/18 00:32:37;;;;;;;236.40;66.82;;;;;;;;;;4997999;28;20409;-45
2024/02/18 00:35:03;;;;;;;233.77;66.20;;;;;;;;;;4995911;28;20688;-45
2024/02/18 00:37:32;;;;;;;237.00;68.95;;;;;;;;;;4994738;28;20408;-44
2024/02/18 00:39:58;;;;;;;236.70;67.75;;;;;;;;;;4999556;28;20231;-45
2024/02/18 00:42:24;;;;;;;235.80;66.67;;;;;;;;;;4991671;28;20182;-45
2024/02/18 00:44:50;;;;;;;236.32;68.50;;;;;;;;;;4996749;28;20465;-45
2024/02/18 00:47:16;;;;;;;236.27;67.90;;;;;;;;;;4995521;28;20208;-45
2024/02/18 00:49:42;;;;;;;239.03;68.70;;;;;;;;;;4997863;28;20471;-45
2024/02/18 00:52:08;;;;;;;236.13;65.93;;;;;;;;;;5001091;28;20412;-45
2024/02/18 00:54:34;;;;;;;235.23;66.47;;;;;;;;;;5001001;28;20232;-45
2024/02/18 00:57:00;;;;;;;237.17;68.30;;;;;;;;;;5004174;28;20422;-44
2024/02/18 00:59:26;;;;;;;238.87;69.20;;;;;;;;;;4999332;28;20412;-44
2024/02/18 01:01:52;;;;;;;234.48;66.57;;;;;;;;;;5000320;28;20420;-45
2024/02/18 01:04:18;;;;;;;237.05;67.35;;;;;;;;;;5000344;28;20300;-45
2024/02/18 01:06:44;;;;;;;238.53;69.97;;;;;;;;;;5000766;28;20169;-45
2024/02/18 01:09:10;;;;;;;235.67;67.27;;;;;;;;;;5002274;28;20947;-45
2024/02/18 01:11:36;;;;;;;237.93;70.20;;;;;;;;;;5005736;28;20430;-45
2024/02/18 01:14:02;;;;;;;239.43;70.80;;;;;;;;;;4997965;28;20583;-45
2024/02/18 01:16:31;;;;;;;239.27;70.97;;;;;;;;;;5000158;28;20422;-49
2024/02/18 01:18:57;;;;;;;239.93;72.25;;;;;;;;;;4999216;28;20177;-45
2024/02/18 01:21:23;;;;;;;235.90;68.13;;;;;;;;;;4999445;28;20782;-44
2024/02/18 01:23:49;;;;;;;237.20;68.47;;;;;;;;;;5001082;28;20503;-45
2024/02/18 01:26:15;;;;;;;235.47;67.97;;;;;;;;;;5000204;28;20416;-45
2024/02/18 01:28:44;;;;;;;235.93;67.10;;;;;;;;;;5000031;28;20412;-45
2024/02/18 01:31:10;;;;;;;234.75;67.03;;;;;;;;;;4998464;28;20982;-45
2024/02/18 01:33:36;;;;;;;237.37;68.13;;;;;;;;;;5002095;28;20205;-46
2024/02/18 01:36:02;;;;;;;237.55;67.18;;;;;;;;;;4993663;28;20415;-44
2024/02/18 01:38:28;;;;;;;236.27;67.90;;;;;;;;;;5013414;28;20664;-45
2024/02/18 01:40:54;;;;;;;236.57;66.90;;;;;;;;;;5013560;28;20625;-45
2024/02/18 01:43:20;;;;;;;235.90;66.67;;;;;;;;;;5013219;28;20958;-47
2024/02/18 01:45:47;;;;;;;237.88;69.45;;;;;;;;;;5013655;28;20418;-48
2024/02/18 01:48:13;;;;;;;237.85;69.82;;;;;;;;;;5013680;28;20177;-45
2024/02/18 01:50:39;;;;;;;237.25;68.95;;;;;;;;;;5013388;28;20267;-45
2024/02/18 01:53:06;;;;;;;235.88;68.63;;;;;;;;;;5013328;28;20573;-44
2024/02/18 01:55:32;;;;;;;238.80;69.25;;;;;;;;;;5012836;28;20174;-44
2024/02/18 01:57:59;;;;;;;239.25;70.03;;;;;;;;;;5013193;28;20180;-44
2024/02/18 02:00:26;;;;;;;238.80;69.18;;;;;;;;;;5013003;28;20175;-46
2024/02/18 02:02:52;;;;;;;238.07;67.75;;;;;;;;;;5011665;28;20184;-46
2024/02/18 02:05:20;;;;;;;237.98;70.35;;;;;;;;;;5012656;28;20247;-45
2024/02/18 02:07:48;;;;;;;235.52;67.93;;;;;;;;;;5012806;28;20180;-44
2024/02/18 02:10:15;;;;;;;237.95;69.40;;;;;;;;;;5012855;28;20262;-45
2024/02/18 02:12:41;;;;;;;236.43;67.60;;;;;;;;;;5012553;28;20559;-46
2024/02/18 02:15:09;;;;;;;243.63;73.82;;;;;;;;;;5013157;28;20173;-45
2024/02/18 02:17:35;;;;;;;238.60;69.05;;;;;;;;;;5012978;28;20200;-45
2024/02/18 02:20:01;;;;;;;236.23;69.67;;;;;;;;;;5012668;28;20219;-45
2024/02/18 02:22:27;;;;;;;237.47;68.37;;;;;;;;;;5012502;28;20969;-45
2024/02/18 02:24:53;;;;;;;237.57;69.20;;;;;;;;;;5012557;28;20450;-45
2024/02/18 02:27:21;;;;;;;238.68;70.43;;;;;;;;;;5012186;28;20498;-45
2024/02/18 02:29:47;;;;;;;233.40;65.25;;;;;;;;;;5012467;28;20207;-44
2024/02/18 02:32:13;;;;;;;236.68;67.18;;;;;;;;;;5012935;28;20227;-45
2024/02/18 02:34:40;;;;;;;236.13;66.97;;;;;;;;;;5008055;28;20239;-46
2024/02/18 02:37:06;;;;;;;236.38;67.45;;;;;;;;;;5012069;28;20415;-45
2024/02/18 02:39:32;;;;;;;236.17;66.63;;;;;;;;;;5012171;28;20181;-45
2024/02/18 02:42:00;;;;;;;236.23;66.47;;;;;;;;;;5000533;28;20427;-44
2024/02/18 02:44:26;;;;;;;239.45;70.28;;;;;;;;;;4998154;28;20196;-44
2024/02/18 02:46:52;;;;;;;237.23;68.45;;;;;;;;;;5011829;28;20169;-44
2024/02/18 02:49:18;;;;;;;237.30;68.32;;;;;;;;;;5002134;28;20259;-44
2024/02/18 02:51:44;;;;;;;236.57;68.40;;;;;;;;;;5000195;28;20648;-47
2024/02/18 02:54:10;;;;;;;234.48;65.97;;;;;;;;;;5012175;28;20517;-44
2024/02/18 02:56:36;;;;;;;238.27;69.33;;;;;;;;;;5009639;28;20206;-44
2024/02/18 02:59:02;;;;;;;235.77;66.53;;;;;;;;;;4996762;28;20432;-44
2024/02/18 03:01:28;;;;;;;236.43;66.50;;;;;;;;;;5009509;28;20469;-46
2024/02/18 03:03:54;;;;;;;234.07;65.60;;;;;;;;;;5012612;28;20474;-44
2024/02/18 03:06:20;;;;;;;233.27;65.07;;;;;;;;;;5011370;28;20442;-47
2024/02/18 03:08:45;;;;;;;236.13;66.83;;;;;;;;;;5011533;28;20458;-45
2024/02/18 03:11:12;;;;;;;234.77;67.07;;;;;;;;;;5012056;28;20467;-44
2024/02/18 03:13:38;;;;;;;236.32;68.35;;;;;;;;;;5010577;28;20430;-45
2024/02/18 03:16:05;;;;;;;235.40;65.43;;;;;;;;;;5011431;28;20179;-45
2024/02/18 03:18:32;;;;;;;235.35;65.88;;;;;;;;;;5011526;28;20172;-44
2024/02/18 03:20:58;;;;;;;235.82;67.80;;;;;;;;;;5011519;28;20188;-45
2024/02/18 03:23:26;;;;;;;238.18;67.28;;;;;;;;;;5008584;28;20204;-46
2024/02/18 03:25:54;;;;;;;234.73;65.90;;;;;;;;;;4997355;28;20168;-45
2024/02/18 03:28:20;;;;;;;237.40;68.20;;;;;;;;;;5008311;28;20182;-45
2024/02/18 03:30:51;;;;;;;235.43;66.68;;;;;;;;;;5011460;28;20239;-45
2024/02/18 03:33:18;;;;;;;234.77;66.20;;;;;;;;;;5007683;28;20683;-45
2024/02/18 03:35:44;;;;;;;234.63;66.38;;;;;;;;;;5011012;28;20196;-46
2024/02/18 03:38:10;;;;;;;234.90;65.60;;;;;;;;;;5011231;28;20647;-47
2024/02/18 03:40:36;;;;;;;237.20;67.80;;;;;;;;;;5011341;28;20192;-46
2024/02/18 03:43:02;;;;;;;237.50;68.78;;;;;;;;;;5011158;28;20431;-45
2024/02/18 03:45:28;;;;;;;234.57;65.78;;;;;;;;;;5010936;28;20183;-46
2024/02/18 03:47:54;;;;;;;234.07;65.87;;;;;;;;;;5011104;28;20222;-45
2024/02/18 03:50:20;;;;;;;236.57;68.78;;;;;;;;;;5011009;28;20534;-46
2024/02/18 03:52:46;;;;;;;235.70;67.10;;;;;;;;;;5011053;28;20180;-47
2024/02/18 03:55:12;;;;;;;241.43;72.35;;;;;;;;;;5010858;28;20410;-47
2024/02/18 03:57:39;;;;;;;236.20;67.60;;;;;;;;;;5010918;28;20180;-45
2024/02/18 04:00:07;;;;;;;236.52;68.75;;;;;;;;;;5011169;28;20176;-45
2024/02/18 04:02:38;;;;;;;239.60;71.53;;;;;;;;;;5011048;28;20172;-45
2024/02/18 04:05:04;;;;;;;235.48;66.45;;;;;;;;;;5010855;28;20191;-44
2024/02/18 04:07:30;;;;;;;235.65;68.05;;;;;;;;;;5010763;28;20716;-44
2024/02/18 04:09:56;;;;;;;234.33;67.97;;;;;;;;;;5010785;28;20207;-45
2024/02/18 04:12:22;;;;;;;238.53;71.87;;;;;;;;;;5010752;28;20407;-46
2024/02/18 04:14:49;;;;;;;236.95;69.25;;;;;;;;;;5010777;28;20434;-44
2024/02/18 04:17:15;;;;;;;237.88;71.35;;;;;;;;;;4999742;28;20188;-45
2024/02/18 04:19:41;;;;;;;235.15;67.85;;;;;;;;;;4997792;28;20183;-45
2024/02/18 04:22:07;;;;;;;236.90;69.67;;;;;;;;;;4995641;28;20189;-46
2024/02/18 04:24:33;;;;;;;238.87;70.83;;;;;;;;;;4997290;28;20432;-46
2024/02/18 04:27:00;;;;;;;236.07;68.18;;;;;;;;;;5000008;28;20416;-45
2024/02/18 04:29:27;;;;;;;237.15;69.70;;;;;;;;;;4998306;28;20209;-46
2024/02/18 04:31:53;;;;;;;234.43;67.30;;;;;;;;;;5000546;28;20618;-45
2024/02/18 04:34:19;;;;;;;234.97;67.57;;;;;;;;;;4999191;28;20216;-45
2024/02/18 04:36:48;;;;;;;236.57;69.55;;;;;;;;;;5001080;28;20406;-45
2024/02/18 04:39:13;;;;;;;235.52;67.60;;;;;;;;;;4998854;28;20183;-47
2024/02/18 04:41:39;;;;;;;237.67;70.30;;;;;;;;;;4995039;28;20407;-45
2024/02/18 04:44:05;;;;;;;234.13;68.70;;;;;;;;;;4998993;28;20435;-45
2024/02/18 04:46:31;;;;;;;239.13;71.13;;;;;;;;;;5000344;28;20418;-45
2024/02/18 04:48:57;;;;;;;235.63;69.40;;;;;;;;;;4999236;28;20415;-45
2024/02/18 04:51:23;;;;;;;235.50;67.60;;;;;;;;;;4999539;28;20743;-45
2024/02/18 04:53:49;;;;;;;235.23;68.80;;;;;;;;;;5000159;28;20865;-45
2024/02/18 04:56:15;;;;;;;233.93;68.40;;;;;;;;;;4996907;28;20411;-45
2024/02/18 04:58:41;;;;;;;235.13;68.10;;;;;;;;;;5000919;28;20438;-45
2024/02/18 05:01:10;;;;;;;236.07;70.03;;;;;;;;;;4998754;28;20485;-44
2024/02/18 05:03:37;;;;;;;237.45;71.32;;;;;;;;;;5000671;28;20454;-46
2024/02/18 05:06:03;;;;;;;235.88;69.65;;;;;;;;;;4998334;28;20658;-45
2024/02/18 05:08:29;;;;;;;236.55;69.18;;;;;;;;;;4999588;28;20207;-44
2024/02/18 05:10:55;;;;;;;235.90;71.17;;;;;;;;;;4997682;28;20327;-45
2024/02/18 05:13:22;;;;;;;235.63;68.80;;;;;;;;;;4998675;28;20435;-45
2024/02/18 05:15:51;;;;;;;233.82;68.05;;;;;;;;;;5000222;28;20412;-45
2024/02/18 05:18:17;;;;;;;238.10;71.38;;;;;;;;;;4998418;28;20169;-45
2024/02/18 05:20:43;;;;;;;237.18;70.30;;;;;;;;;;5000358;28;20269;-45
2024/02/18 05:23:09;;;;;;;234.73;69.37;;;;;;;;;;4998627;28;20223;-45
2024/02/18 05:25:36;;;;;;;237.97;70.27;;;;;;;;;;4998363;28;20420;-45
2024/02/18 05:28:02;;;;;;;235.25;69.30;;;;;;;;;;4993760;28;20416;-45
2024/02/18 05:30:28;;;;;;;237.55;69.47;;;;;;;;;;4999385;28;20231;-45
2024/02/18 05:32:54;;;;;;;236.37;70.47;;;;;;;;;;4999094;28;20643;-44
2024/02/18 05:35:20;;;;;;;236.83;71.47;;;;;;;;;;4997860;28;20810;-45
2024/02/18 05:37:46;;;;;;;234.13;68.60;;;;;;;;;;4997642;28;20825;-45
2024/02/18 05:40:13;;;;;;;236.47;69.47;;;;;;;;;;4998457;28;20420;-47
2024/02/18 05:42:39;;;;;;;236.77;69.65;;;;;;;;;;5000282;28;20407;-45
2024/02/18 05:45:05;;;;;;;245.13;76.80;;;;;;;;;;4998113;28;20663;-46
2024/02/18 05:47:31;;;;;;;234.65;68.60;;;;;;;;;;4999526;28;20416;-45
2024/02/18 05:49:57;;;;;;;236.38;70.43;;;;;;;;;;4998159;28;20213;-45
2024/02/18 05:52:23;;;;;;;234.93;69.37;;;;;;;;;;4996757;28;20179;-48
2024/02/18 05:54:49;;;;;;;236.07;70.17;;;;;;;;;;4999252;28;20434;-45
2024/02/18 05:57:15;;;;;;;234.73;68.47;;;;;;;;;;4997781;28;20400;-44
2024/02/18 05:59:41;;;;;;;236.13;70.68;;;;;;;;;;4999733;28;20403;-45
2024/02/18 06:02:07;;;;;;;235.47;68.50;;;;;;;;;;4997923;28;20184;-45
2024/02/18 06:04:33;;;;;;;237.57;70.43;;;;;;;;;;4999036;28;20659;-45
2024/02/18 06:06:59;;;;;;;233.83;68.10;;;;;;;;;;4996360;28;20264;-45
2024/02/18 06:09:25;;;;;;;235.10;70.10;;;;;;;;;;4998138;28;20412;-48
2024/02/18 06:11:51;;;;;;;233.30;68.13;;;;;;;;;;4998769;28;20787;-45
2024/02/18 06:14:17;;;;;;;234.02;68.80;;;;;;;;;;4997319;28;20216;-47
2024/02/18 06:16:43;;;;;;;237.82;73.00;;;;;;;;;;4999354;28;20552;-45
2024/02/18 06:19:09;;;;;;;235.93;71.00;;;;;;;;;;5007647;28;20176;-45
2024/02/18 06:21:35;;;;;;;235.38;71.47;;;;;;;;;;5012508;28;20506;-44
2024/02/18 06:24:02;;;;;;;235.20;71.10;;;;;;;;;;5012339;28;20235;-44
2024/02/18 06:26:28;;;;;;;236.20;71.57;;;;;;;;;;4994314;28;20523;-48
2024/02/18 06:28:57;;;;;;;237.80;73.10;;;;;;;;;;4997130;28;20177;-45
2024/02/18 06:31:23;;;;;;;233.52;69.13;;;;;;;;;;4996203;28;20208;-45
2024/02/18 06:33:49;;;;;;;235.63;69.80;;;;;;;;;;4998564;28;20207;-47
2024/02/18 06:36:15;;;;;;;236.27;72.70;;;;;;;;;;4996356;28;20698;-45
2024/02/18 06:38:45;;;;;;;234.80;70.53;;;;;;;;;;4998185;28;20412;-45
2024/02/18 06:41:11;;;;;;;239.07;73.47;;;;;;;;;;4994988;28;20174;-45
2024/02/18 06:43:37;;;;;;;234.05;69.38;;;;;;;;;;4998792;28;20233;-45
2024/02/18 06:46:06;;;;;;;233.95;69.38;;;;;;;;;;4996395;28;20292;-45
2024/02/18 06:48:32;;;;;;;235.48;69.38;;;;;;;;;;4997084;28;20212;-44
2024/02/18 06:50:58;;;;;;;233.45;68.68;;;;;;;;;;4997178;28;20244;-45
2024/02/18 06:53:24;;;;;;;232.13;67.33;;;;;;;;;;4996376;28;20739;-44
2024/02/18 06:55:50;;;;;;;231.98;68.05;;;;;;;;;;4997906;28;20770;-45
2024/02/18 06:58:19;;;;;;;233.87;69.20;;;;;;;;;;4996823;28;20173;-45
2024/02/18 07:00:45;;;;;;;237.10;70.55;;;;;;;;;;4996228;28;20906;-44
2024/02/18 07:03:11;;;;;;;234.10;68.23;;;;;;;;;;4996348;28;20208;-44
2024/02/18 07:05:37;;;;;;;233.30;67.78;;;;;;;;;;4998390;28;20416;-45
2024/02/18 07:08:05;;;;;;;233.73;68.90;;;;;;;;;;4995759;28;20185;-45
2024/02/18 07:10:31;;;;;;;235.80;70.68;;;;;;;;;;4998143;28;20462;-44
2024/02/18 07:12:57;;;;;;;234.83;71.27;;;;;;;;;;4997075;28;20201;-45
2024/02/18 07:15:23;;;;;;;236.53;71.27;;;;;;;;;;4995521;28;20498;-44
2024/02/18 07:17:49;;;;;;;233.87;69.17;;;;;;;;;;4997814;28;20790;-44
2024/02/18 07:20:15;;;;;;;231.43;68.05;;;;;;;;;;4992884;28;20416;-44
2024/02/18 07:22:44;;;;;;;237.15;71.50;;;;;;;;;;4997636;28;20176;-44
2024/02/18 07:25:10;;;;;;;235.68;71.00;;;;;;;;;;4995971;28;20372;-44
2024/02/18 07:27:37;;;;;;;236.05;70.65;;;;;;;;;;4998089;28;20235;-44
2024/02/18 07:30:04;;;;;;;232.85;68.03;;;;;;;;;;4995857;28;20200;-45
2024/02/18 07:32:30;;;;;;;232.75;67.78;;;;;;;;;;4997232;28;20177;-45
2024/02/18 07:34:55;;;;;;;235.87;70.30;;;;;;;;;;4995846;28;20204;-46
2024/02/18 07:37:21;;;;;;;231.67;66.67;;;;;;;;;;4996143;28;20405;-45
2024/02/18 07:39:47;;;;;;;232.97;69.00;;;;;;;;;;4997897;28;20411;-44
2024/02/18 07:42:13;;;;;;;234.13;66.30;;;;;;;;;;4995781;28;20473;-45
2024/02/18 07:44:44;;;;;;;237.55;70.05;;;;;;;;;;4997778;28;20453;-45
2024/02/18 07:47:10;;;;;;;233.68;67.10;;;;;;;;;;4995539;28;20177;-45
2024/02/18 07:49:36;;;;;;;236.07;68.40;;;;;;;;;;4997318;28;20188;-45
2024/02/18 07:52:02;;;;;;;235.40;67.10;;;;;;;;;;4991602;28;20465;-45
2024/02/18 07:54:28;;;;;;;232.93;65.97;;;;;;;;;;4996829;28;20447;-45
2024/02/18 07:56:54;;;;;;;232.20;65.17;;;;;;;;;;4996294;28;20403;-45
2024/02/18 07:59:21;;;;;;;231.35;63.88;;;;;;;;;;4995729;28;20408;-46
2024/02/18 08:01:48;;;;;;;232.70;63.65;;;;;;;;;;5001790;28;20175;-45
2024/02/18 08:04:14;;;;;;;229.88;62.17;;;;;;;;;;4999270;28;20270;-44
2024/02/18 08:06:40;;;;;;;234.55;66.65;;;;;;;;;;4999596;28;20247;-45
2024/02/18 08:09:07;;;;;;;230.15;61.97;;;;;;;;;;4999824;28;20256;-45
2024/02/18 08:11:33;;;;;;;233.40;64.95;;;;;;;;;;5001382;28;20228;-44
2024/02/18 08:13:59;;;;;;;234.67;67.20;;;;;;;;;;4999865;28;20227;-44
2024/02/18 08:16:28;;;;;;;232.70;63.88;;;;;;;;;;5000335;28;20400;-47
2024/02/18 08:18:54;;;;;;;233.35;65.47;;;;;;;;;;5000087;28;20208;-45
2024/02/18 08:21:20;;;;;;;230.43;63.45;;;;;;;;;;4997479;28;20678;-46
2024/02/18 08:23:46;;;;;;;228.50;61.77;;;;;;;;;;5001534;28;20227;-46
2024/02/18 08:26:22;;;;;;;233.70;67.87;;;;;;;;;;4999393;28;20919;-44
2024/02/18 08:28:48;;;;;;;234.40;68.03;;;;;;;;;;4997459;28;20406;-44
2024/02/18 08:31:14;;;;;;;233.93;67.97;;;;;;;;;;4999267;28;20272;-44
2024/02/18 08:33:40;;;;;;;234.45;67.70;;;;;;;;;;4999530;28;20427;-45
2024/02/18 08:36:06;;;;;;;233.83;68.13;;;;;;;;;;4999280;28;20168;-45
2024/02/18 08:38:32;;;;;;;232.17;67.37;;;;;;;;;;5000714;28;20963;-45
2024/02/18 08:40:58;;;;;;;231.43;65.03;;;;;;;;;;4999705;28;20416;-45
2024/02/18 08:43:24;;;;;;;233.13;66.30;;;;;;;;;;4994966;28;20475;-44
2024/02/18 08:45:50;;;;;;;233.43;66.40;;;;;;;;;;4997951;28;20422;-44
2024/02/18 08:48:16;;;;;;;232.37;64.73;;;;;;;;;;4997098;28;20412;-44
2024/02/18 08:50:42;;;;;;;233.02;65.88;;;;;;;;;;5001315;28;20502;-45
2024/02/18 08:53:08;;;;;;;231.73;66.00;;;;;;;;;;4999113;28;20217;-45
2024/02/18 08:55:34;;;;;;;229.45;62.90;;;;;;;;;;5000596;28;20407;-45
2024/02/18 08:58:00;;;;;;;233.93;67.97;;;;;;;;;;4998941;28;20176;-45
2024/02/18 09:00:26;;;;;;;232.70;65.53;;;;;;;;;;4999333;28;20181;-46
2024/02/18 09:02:52;;;;;;;233.25;65.55;;;;;;;;;;4998053;28;20411;-44
2024/02/18 09:05:18;;;;;;;232.33;66.67;;;;;;;;;;4999257;28;20591;-44
2024/02/18 09:07:44;;;;;;;230.15;63.28;;;;;;;;;;5000658;28;20482;-44
2024/02/18 09:10:10;;;;;;;235.63;68.60;;;;;;;;;;4998778;28;20208;-45
2024/02/18 09:12:36;;;;;;;230.73;64.23;;;;;;;;;;4999526;28;20173;-44
2024/02/18 09:15:02;;;;;;;230.40;64.13;;;;;;;;;;4998474;28;20434;-45
2024/02/18 09:17:28;;;;;;;231.63;65.47;;;;;;;;;;5011463;28;20414;-44
2024/02/18 09:19:54;;;;;;;229.47;64.93;;;;;;;;;;4996768;28;20850;-45
2024/02/18 09:22:20;;;;;;;232.60;66.57;;;;;;;;;;4997746;28;20419;-47
2024/02/18 09:24:46;;;;;;;236.30;69.47;;;;;;;;;;5007588;28;20517;-45
2024/02/18 09:27:12;;;;;;;231.03;64.30;;;;;;;;;;5013249;28;20186;-44
2024/02/18 09:29:38;;;;;;;229.10;64.40;;;;;;;;;;5013312;28;20411;-44
2024/02/18 09:32:04;;;;;;;232.77;65.57;;;;;;;;;;4989731;28;20760;-45
2024/02/18 09:34:31;;;;;;;233.10;66.88;;;;;;;;;;4990190;28;20440;-48
2024/02/18 09:36:57;;;;;;;233.32;68.13;;;;;;;;;;4998426;28;20548;-45
2024/02/18 09:39:23;;;;;;;234.70;68.40;;;;;;;;;;5010612;28;20172;-44
2024/02/18 09:41:50;;;;;;;235.77;68.33;;;;;;;;;;5013070;28;20975;-44
2024/02/18 09:44:17;;;;;;;237.30;70.90;;;;;;;;;;5011686;28;20446;-45
2024/02/18 09:46:44;;;;;;;236.85;71.15;;;;;;;;;;5012310;28;20168;-45
2024/02/18 09:49:11;;;;;;;234.38;68.00;;;;;;;;;;5013121;28;20538;-44
2024/02/18 09:51:38;;;;;;;236.23;69.43;;;;;;;;;;5012140;28;20200;-45
2024/02/18 09:54:04;;;;;;;235.32;69.50;;;;;;;;;;5012756;28;20682;-45
2024/02/18 09:56:30;;;;;;;235.32;69.70;;;;;;;;;;5012525;28;20315;-44
2024/02/18 09:58:56;;;;;;;234.23;68.10;;;;;;;;;;5013037;28;20604;-45
2024/02/18 10:01:23;;;;;;;232.87;66.70;;;;;;;;;;5013164;28;20190;-45
2024/02/18 10:03:50;;;;;;;234.95;70.13;;;;;;;;;;5012700;28;20981;-44
2024/02/18 10:06:16;;;;;;;235.13;70.72;;;;;;;;;;5010554;28;20184;-44
2024/02/18 10:08:51;;;;;;;232.67;68.30;;;;;;;;;;5012704;28;20725;-45
2024/02/18 10:11:20;;;;;;;234.70;71.53;;;;;;;;;;5012796;28;20578;-44
2024/02/18 10:13:47;;;;;;;234.13;68.50;;;;;;;;;;5012528;28;20192;-45
2024/02/18 10:16:14;;;;;;;234.55;69.43;;;;;;;;;;5012510;28;20175;-44
2024/02/18 10:18:40;;;;;;;235.77;69.15;;;;;;;;;;5012461;28;20187;-45
2024/02/18 10:21:07;;;;;;;236.87;69.83;;;;;;;;;;5012683;28;20184;-45
2024/02/18 10:23:33;;;;;;;233.02;67.80;;;;;;;;;;5012135;28;20438;-44
2024/02/18 10:26:00;;;;;;;237.85;70.97;;;;;;;;;;5012440;28;20176;-45
2024/02/18 10:28:27;;;;;;;237.63;71.55;;;;;;;;;;5012594;28;20180;-44
2024/02/18 10:30:53;;;;;;;235.63;70.57;;;;;;;;;;5012353;28;20203;-45
2024/02/18 10:33:19;;;;;;;234.80;69.37;;;;;;;;;;5007805;28;20196;-45
2024/02/18 10:35:49;;;;;;;233.98;68.38;;;;;;;;;;5012208;28;20488;-44
2024/02/18 10:38:20;;;;;;;235.52;69.03;;;;;;;;;;5012614;28;20180;-44
2024/02/18 10:40:48;;;;;;;234.93;68.95;;;;;;;;;;5012322;28;20180;-46
2024/02/18 10:43:16;;;;;;;235.38;68.00;;;;;;;;;;5012240;28;20203;-44
2024/02/18 10:45:45;;;;;;;233.25;67.82;;;;;;;;;;5011985;28;20326;-44
2024/02/18 10:48:12;;;;;;;231.57;66.90;;;;;;;;;;5012392;28;20180;-46
2024/02/18 10:50:49;;;;;;;232.43;66.00;;;;;;;;;;5012205;28;20203;-45
2024/02/18 10:53:15;;;;;;;230.55;64.80;;;;;;;;;;5012034;28;20187;-44
2024/02/18 10:55:44;;;;;;;231.47;65.97;;;;;;;;;;5011796;28;20310;-45
2024/02/18 10:58:17;;;;;;;233.85;67.10;;;;;;;;;;5011788;28;20414;-45
2024/02/18 11:00:46;;;;;;;233.00;66.95;;;;;;;;;;5011846;28;20258;-45
2024/02/18 11:03:15;;;;;;;235.93;69.32;;;;;;;;;;5011679;28;20227;-44
2024/02/18 11:05:41;;;;;;;240.27;73.57;;;;;;;;;;5007138;28;20259;-46
2024/02/18 11:08:08;;;;;;;233.48;67.47;;;;;;;;;;4995573;28;20491;-44
2024/02/18 11:10:35;;;;;;;235.88;68.55;;;;;;;;;;4996578;28;20228;-45
2024/02/18 11:13:01;;;;;;;235.20;69.53;;;;;;;;;;4998859;28;20199;-44
2024/02/18 11:15:27;;;;;;;231.32;66.47;;;;;;;;;;5008685;28;20185;-44
2024/02/18 11:17:54;;;;;;;235.13;68.22;;;;;;;;;;5007058;28;20246;-47
2024/02/18 11:20:20;;;;;;;232.38;65.88;;;;;;;;;;5005710;28;20184;-47
2024/02/18 11:22:47;;;;;;;234.90;68.00;;;;;;;;;;5008640;28;20210;-45
2024/02/18 11:25:13;;;;;;;237.93;72.88;;;;;;;;;;5002658;28;20175;-45
2024/02/18 11:27:39;;;;;;;236.18;67.47;;;;;;;;;;5002569;28;20460;-45
2024/02/18 11:30:06;;;;;;;235.07;70.25;;;;;;;;;;5008869;28;20639;-46
2024/02/18 11:32:32;;;;;;;234.98;68.05;;;;;;;;;;5007267;28;20180;-46
2024/02/18 11:35:11;;;;;;;236.20;70.13;;;;;;;;;;5004556;28;20203;-50
2024/02/18 11:37:38;;;;;;;234.50;67.97;;;;;;;;;;5003636;28;20180;-45
2024/02/18 11:40:10;;;;;;;233.68;66.40;;;;;;;;;;5010010;28;20188;-45
2024/02/18 11:42:37;;;;;;;234.85;68.60;;;;;;;;;;5008599;28;20712;-46
2024/02/18 11:45:07;;;;;;;233.40;66.80;;;;;;;;;;5008987;28;20231;-45
2024/02/18 11:47:33;;;;;;;252.60;82.53;;;;;;;;;;5004590;28;20556;-45
2024/02/18 11:49:59;;;;;;;233.15;65.47;;;;;;;;;;4987497;28;20201;-45
2024/02/18 11:52:25;;;;;;;235.23;68.03;;;;;;;;;;5023376;28;20629;-44
2024/02/18 11:54:51;;;;;;;235.40;67.60;;;;;;;;;;5003925;28;20200;-45
2024/02/18 11:57:17;;;;;;;233.27;65.50;;;;;;;;;;5008970;28;20178;-44
2024/02/18 11:59:44;;;;;;;233.18;65.45;;;;;;;;;;4999062;28;20855;-45
2024/02/18 12:02:12;;;;;;;232.38;64.80;;;;;;;;;;4998921;28;20208;-45
2024/02/18 12:04:40;;;;;;;232.98;65.93;;;;;;;;;;5008309;28;20208;-45
2024/02/18 12:07:07;;;;;;;230.60;66.30;;;;;;;;;;5005400;28;20218;-45
2024/02/18 12:09:33;;;;;;;232.23;66.35;;;;;;;;;;5010211;28;20256;-44
2024/02/18 12:11:59;;;;;;;233.43;65.37;;;;;;;;;;5008415;28;20286;-45
2024/02/18 12:14:25;;;;;;;232.97;64.90;;;;;;;;;;5006719;28;20431;-45
2024/02/18 12:16:51;;;;;;;231.70;64.72;;;;;;;;;;5010949;28;20439;-44
2024/02/18 12:19:18;;;;;;;233.05;64.35;;;;;;;;;;5011272;28;20200;-44
2024/02/18 12:21:54;;;;;;;232.55;63.92;;;;;;;;;;5011002;28;20493;-44
2024/02/18 12:24:20;;;;;;;229.13;60.28;;;;;;;;;;5010910;28;20223;-45
2024/02/18 12:26:46;;;;;;;231.55;64.38;;;;;;;;;;5010726;28;20251;-45
2024/02/18 12:29:12;;;;;;;230.63;62.50;;;;;;;;;;5011400;28;20299;-45
2024/02/18 12:31:41;;;;;;;231.93;66.30;;;;;;;;;;5011065;28;20212;-45
2024/02/18 12:34:07;;;;;;;235.27;65.82;;;;;;;;;;5006978;28;20852;-45
2024/02/18 12:36:33;;;;;;;230.47;62.50;;;;;;;;;;5010716;28;20255;-45
2024/02/18 12:38:59;;;;;;;233.20;65.80;;;;;;;;;;5011062;28;20407;-44
2024/02/18 12:41:25;;;;;;;231.23;62.78;;;;;;;;;;5011090;28;20969;-45
2024/02/18 12:43:51;;;;;;;231.07;61.70;;;;;;;;;;5011118;28;20208;-46
2024/02/18 12:46:17;;;;;;;233.15;64.70;;;;;;;;;;5011944;28;20407;-45
2024/02/18 12:48:43;;;;;;;230.50;61.80;;;;;;;;;;5014060;28;20225;-46
2024/02/18 12:51:13;;;;;;;232.17;63.73;;;;;;;;;;5014451;28;20474;-45
2024/02/18 12:53:40;;;;;;;232.90;63.47;;;;;;;;;;5014181;28;20427;-45
2024/02/18 12:56:07;;;;;;;232.05;63.45;;;;;;;;;;5014402;28;20173;-44
2024/02/18 12:58:34;;;;;;;231.48;63.05;;;;;;;;;;5014288;28;20180;-45
2024/02/18 13:01:00;;;;;;;233.00;64.10;;;;;;;;;;5014320;28;20306;-45
2024/02/18 13:03:26;;;;;;;231.97;63.60;;;;;;;;;;5013815;28;20310;-44
2024/02/18 13:05:52;;;;;;;228.77;60.37;;;;;;;;;;5014138;28;20415;-45
2024/02/18 13:08:18;;;;;;;232.82;63.75;;;;;;;;;;5013730;28;20473;-45
2024/02/18 13:10:44;;;;;;;230.02;61.95;;;;;;;;;;5013660;28;20220;-45
2024/02/18 13:13:12;;;;;;;228.97;61.40;;;;;;;;;;5013809;28;20273;-44
2024/02/18 13:15:38;;;;;;;229.30;60.33;;;;;;;;;;5013318;28;20411;-45
2024/02/18 13:18:04;;;;;;;230.50;60.90;;;;;;;;;;5013683;28;20183;-45
2024/02/18 13:20:30;;;;;;;231.38;61.47;;;;;;;;;;5013777;28;20476;-45
2024/02/18 13:22:56;;;;;;;228.50;58.95;;;;;;;;;;5013641;28;20210;-45
2024/02/18 13:25:22;;;;;;;230.70;60.83;;;;;;;;;;5013460;28;20259;-45
2024/02/18 13:27:48;;;;;;;230.27;60.60;;;;;;;;;;5013943;28;20351;-45
2024/02/18 13:30:15;;;;;;;233.10;63.97;;;;;;;;;;5013565;28;20191;-45
2024/02/18 13:32:41;;;;;;;229.55;61.63;;;;;;;;;;5013819;28;20429;-46
2024/02/18 13:35:07;;;;;;;236.77;67.65;;;;;;;;;;5008830;28;20589;-45
2024/02/18 13:37:33;;;;;;;228.40;59.05;;;;;;;;;;5013336;28;20255;-45
2024/02/18 13:39:59;;;;;;;229.50;61.35;;;;;;;;;;5013464;28;20188;-46
2024/02/18 13:42:25;;;;;;;229.70;62.60;;;;;;;;;;5013367;28;20574;-45
2024/02/18 13:44:51;;;;;;;231.17;63.03;;;;;;;;;;5013332;28;20779;-45
2024/02/18 13:47:20;;;;;;;230.03;62.27;;;;;;;;;;5013284;28;20422;-45
2024/02/18 13:49:46;;;;;;;230.13;63.00;;;;;;;;;;5013715;28;20407;-44
2024/02/18 13:52:12;;;;;;;230.82;61.63;;;;;;;;;;5013330;28;20199;-44
2024/02/18 13:54:38;;;;;;;229.60;61.87;;;;;;;;;;5013137;28;20683;-44
2024/02/18 13:57:07;;;;;;;230.07;62.10;;;;;;;;;;5012799;28;20930;-45
2024/02/18 13:59:34;;;;;;;231.07;62.92;;;;;;;;;;5012502;28;20406;-45